Time;durP1;ratioP1;P1;durP2;ratioP2;P2;SDS_P1;SDS_P2;PMS_P1;PMS_P2;Temp;Humidity;BMP_temperature;BMP_pressure;BME280_temperature;BME280_humidity;BME280_pressure;Samples;Min_cycle;Max_cycle;Signal;HPM_P1;HPM_P2
2023/03/26 00:00:08;;;;;;;0.70;0.70;;;;;;;12.50;100.00;98699.81;5123421;27;20642;-65
2023/03/26 00:02:38;;;;;;;0.40;0.40;;;;;;;12.42;100.00;98701.94;5133015;27;20297;-67
2023/03/26 00:05:06;;;;;;;0.60;0.60;;;;;;;12.38;100.00;98699.59;5126326;27;20194;-66
2023/03/26 00:07:34;;;;;;;0.50;0.50;;;;;;;12.34;100.00;98698.91;5123328;27;20201;-65
2023/03/26 00:10:02;;;;;;;0.80;0.80;;;;;;;12.27;100.00;98702.69;5119133;27;20194;-66
2023/03/26 00:12:29;;;;;;;0.40;0.40;;;;;;;12.21;100.00;98697.84;5129973;27;20198;-65
2023/03/26 00:14:56;;;;;;;0.60;0.60;;;;;;;12.07;100.00;98695.09;5121563;27;20209;-65
2023/03/26 00:17:23;;;;;;;0.70;0.70;;;;;;;11.92;100.00;98676.09;5131453;27;20198;-65
2023/03/26 00:19:52;;;;;;;0.57;0.57;;;;;;;11.98;100.00;98687.81;5122186;27;20782;-65
2023/03/26 00:22:19;;;;;;;0.53;0.53;;;;;;;11.88;100.00;98702.84;5117060;27;20206;-66
2023/03/26 00:24:49;;;;;;;0.73;0.73;;;;;;;11.69;100.00;98699.41;5123054;27;20213;-65
2023/03/26 00:27:16;;;;;;;0.43;0.43;;;;;;;11.56;100.00;98695.75;5119633;27;20202;-65
2023/03/26 00:29:43;;;;;;;0.57;0.57;;;;;;;11.48;100.00;98687.53;5129210;27;20197;-66
2023/03/26 00:32:10;;;;;;;0.70;0.70;;;;;;;11.41;100.00;98683.59;5121393;27;20565;-66
2023/03/26 00:34:40;;;;;;;0.70;0.70;;;;;;;11.39;100.00;98681.09;5126507;27;20198;-66
2023/03/26 00:37:07;;;;;;;0.70;0.70;;;;;;;11.41;100.00;98684.41;5120212;27;20198;-66
2023/03/26 00:39:36;;;;;;;0.50;0.50;;;;;;;11.44;100.00;98679.16;5122790;27;20301;-65
2023/03/26 00:42:07;;;;;;;0.70;0.70;;;;;;;11.47;100.00;98668.75;5119248;27;20244;-65
2023/03/26 00:44:34;;;;;;;0.43;0.43;;;;;;;11.54;100.00;98670.13;5124852;27;20679;-66
2023/03/26 00:47:02;;;;;;;0.60;0.60;;;;;;;11.57;100.00;98672.56;5123864;27;20199;-66
2023/03/26 00:49:29;;;;;;;0.40;0.40;;;;;;;11.65;100.00;98672.22;5122591;27;20710;-66
2023/03/26 00:51:56;;;;;;;0.50;0.50;;;;;;;11.69;100.00;98672.91;5124783;27;20209;-66
2023/03/26 00:54:23;;;;;;;1.13;1.10;;;;;;;11.71;100.00;98677.09;5122408;27;20198;-64
2023/03/26 00:56:50;;;;;;;0.47;0.47;;;;;;;11.80;100.00;98675.84;5124485;27;20202;-65
2023/03/26 00:59:18;;;;;;;0.40;0.40;;;;;;;11.83;100.00;98684.22;5126595;27;20218;-65
2023/03/26 01:01:45;;;;;;;0.60;0.60;;;;;;;11.80;100.00;98688.66;5124053;27;20630;-65
2023/03/26 01:04:29;;;;;;;0.50;0.50;;;;;;;11.88;100.00;98713.09;5126277;27;20194;-65
2023/03/26 01:06:57;;;;;;;0.57;0.57;;;;;;;11.94;100.00;98725.66;5122204;27;20194;-65
2023/03/26 01:09:33;;;;;;;0.50;0.50;;;;;;;11.94;100.00;98729.97;5121506;27;20206;-65
2023/03/26 01:12:01;;;;;;;0.50;0.50;;;;;;;11.98;100.00;98731.50;5125843;27;20201;-65
2023/03/26 01:14:29;;;;;;;0.50;0.50;;;;;;;11.95;100.00;98724.78;5122988;27;20207;-65
2023/03/26 01:16:58;;;;;;;0.70;0.70;;;;;;;11.92;100.00;98721.50;5120808;27;20202;-65
2023/03/26 01:19:37;;;;;;;0.43;0.43;;;;;;;11.94;100.00;98722.25;5120513;27;20221;-66
2023/03/26 01:22:05;;;;;;;0.60;0.60;;;;;;;11.98;100.00;98716.09;5118310;28;20214;-65
2023/03/26 01:24:33;;;;;;;0.80;0.80;;;;;;;11.95;100.00;98723.94;5129993;27;20253;-66
2023/03/26 01:27:27;;;;;;;0.40;0.40;;;;;;;11.86;100.00;98726.91;5125062;28;20199;-65
2023/03/26 01:29:58;;;;;;;0.50;0.50;;;;;;;11.87;100.00;98731.16;5122003;28;20198;-65
2023/03/26 01:32:39;;;;;;;0.60;0.60;;;;;;;11.86;100.00;98732.88;5123840;28;20202;-66
2023/03/26 01:35:20;;;;;;;1.07;1.07;;;;;;;11.76;100.00;98711.09;5122776;28;20191;-66
2023/03/26 01:38:00;;;;;;;0.60;0.60;;;;;;;11.91;100.00;98719.84;5120688;28;20197;-66
2023/03/26 01:40:37;;;;;;;0.70;0.70;;;;;;;11.84;100.00;98724.41;5124689;28;20708;-65
2023/03/26 01:43:12;;;;;;;0.50;0.50;;;;;;;11.87;100.00;98726.00;5125323;28;20198;-65
2023/03/26 01:45:42;;;;;;;0.70;0.70;;;;;;;11.84;100.00;98719.28;5120358;28;20738;-66
2023/03/26 01:48:09;;;;;;;0.50;0.50;;;;;;;11.80;100.00;98737.47;5120215;28;21520;-65
2023/03/26 01:50:36;;;;;;;0.40;0.40;;;;;;;11.76;100.00;98728.25;5116650;28;20213;-65
2023/03/26 01:53:03;;;;;;;0.80;0.80;;;;;;;11.73;100.00;98716.38;5127218;28;20190;-65
2023/03/26 01:55:40;;;;;;;0.40;0.40;;;;;;;11.83;100.00;98727.88;5120995;28;20237;-65
2023/03/26 01:58:13;;;;;;;0.50;0.50;;;;;;;11.92;100.00;98729.22;5122945;28;20194;-65
2023/03/26 02:00:45;;;;;;;0.80;0.80;;;;;;;11.93;100.00;98734.25;5127275;28;20677;-65
2023/03/26 02:03:20;;;;;;;0.63;0.63;;;;;;;12.03;100.00;98744.94;5121806;28;20230;-65
2023/03/26 02:05:52;;;;;;;0.70;0.70;;;;;;;12.10;100.00;98736.06;5122357;28;20696;-65
2023/03/26 02:08:23;;;;;;;0.47;0.47;;;;;;;12.10;100.00;98723.22;5126306;28;20203;-65
2023/03/26 02:10:56;;;;;;;0.53;0.53;;;;;;;12.35;100.00;98740.84;5122721;28;20195;-65
2023/03/26 02:13:24;;;;;;;0.60;0.60;;;;;;;12.49;100.00;98733.31;5119590;28;20640;-65
2023/03/26 02:15:58;;;;;;;0.40;0.40;;;;;;;12.61;100.00;98737.88;5126566;28;20194;-65
2023/03/26 02:18:34;;;;;;;0.60;0.60;;;;;;;12.75;100.00;98738.03;5126695;28;20232;-65
2023/03/26 02:21:01;;;;;;;0.80;0.80;;;;;;;12.89;100.00;98742.50;5129430;28;20243;-66
2023/03/26 02:23:28;;;;;;;0.50;0.50;;;;;;;12.94;100.00;98751.63;5119847;28;20251;-66
2023/03/26 02:25:56;;;;;;;0.60;0.60;;;;;;;13.01;100.00;98744.44;5122484;27;20210;-65
2023/03/26 02:28:23;;;;;;;1.03;1.03;;;;;;;13.05;100.00;98743.38;5122957;28;20662;-65
2023/03/26 02:30:51;;;;;;;0.60;0.60;;;;;;;13.07;100.00;98747.53;5118093;28;20199;-66
2023/03/26 02:33:18;;;;;;;0.40;0.40;;;;;;;13.10;100.00;98747.41;5117630;28;20194;-66
2023/03/26 02:35:44;;;;;;;0.50;0.50;;;;;;;13.07;100.00;98749.28;5122826;27;20219;-65
2023/03/26 02:38:13;;;;;;;0.40;0.40;;;;;;;13.12;100.00;98755.03;5118972;27;20202;-65
2023/03/26 02:40:40;;;;;;;0.40;0.40;;;;;;;13.15;100.00;98754.88;5122711;27;20287;-66
2023/03/26 02:43:08;;;;;;;0.50;0.50;;;;;;;13.12;100.00;98765.34;5128755;27;20254;-66
2023/03/26 02:45:35;;;;;;;0.60;0.60;;;;;;;13.08;100.00;98769.84;5120446;27;20199;-66
2023/03/26 02:48:02;;;;;;;0.50;0.50;;;;;;;13.05;100.00;98775.06;5129613;27;20669;-65
2023/03/26 02:50:31;;;;;;;0.50;0.50;;;;;;;13.04;100.00;98772.59;5129354;27;20619;-66
2023/03/26 02:52:58;;;;;;;0.60;0.60;;;;;;;12.99;100.00;98775.38;5132372;27;20300;-65
2023/03/26 02:55:26;;;;;;;0.50;0.50;;;;;;;12.97;100.00;98771.22;5122243;27;20368;-65
2023/03/26 02:57:52;;;;;;;0.40;0.40;;;;;;;12.97;100.00;98776.38;5125588;27;20198;-65
2023/03/26 03:00:21;;;;;;;0.40;0.40;;;;;;;12.93;100.00;98774.84;5121422;27;20264;-65
2023/03/26 03:02:48;;;;;;;0.40;0.40;;;;;;;12.91;100.00;98782.66;5122673;27;20197;-65
2023/03/26 03:05:16;;;;;;;0.50;0.50;;;;;;;12.92;100.00;98783.50;5127835;27;20272;-66
2023/03/26 03:07:45;;;;;;;0.50;0.50;;;;;;;12.89;99.88;98786.22;5127402;27;20665;-65
2023/03/26 03:10:14;;;;;;;0.40;0.40;;;;;;;12.91;99.74;98786.97;5131573;27;20628;-65
2023/03/26 03:12:41;;;;;;;0.70;0.70;;;;;;;12.91;98.94;98792.94;5129216;27;20205;-65
2023/03/26 03:15:09;;;;;;;0.50;0.50;;;;;;;12.91;98.55;98786.97;5123226;27;20593;-65
2023/03/26 03:17:37;;;;;;;0.50;0.50;;;;;;;12.91;97.89;98794.69;5127638;27;20692;-66
2023/03/26 03:20:08;;;;;;;0.60;0.60;;;;;;;12.86;97.68;98786.38;5126022;27;20276;-65
2023/03/26 03:22:35;;;;;;;0.50;0.50;;;;;;;12.84;96.93;98791.59;5130924;27;20704;-66
2023/03/26 03:25:02;;;;;;;0.40;0.40;;;;;;;12.77;97.99;98799.66;5128458;27;20305;-65
2023/03/26 03:27:28;;;;;;;0.50;0.50;;;;;;;12.72;97.82;98799.06;5127918;27;20212;-65
2023/03/26 03:29:55;;;;;;;0.50;0.50;;;;;;;12.68;98.04;98800.13;5125094;27;20194;-65
2023/03/26 03:32:22;;;;;;;0.50;0.50;;;;;;;12.56;97.46;98791.25;5128693;27;20251;-66
2023/03/26 03:34:51;;;;;;;0.50;0.50;;;;;;;12.61;97.38;98804.72;5126370;27;20202;-65
2023/03/26 03:37:18;;;;;;;0.50;0.50;;;;;;;12.54;97.81;98811.88;5118842;27;20699;-65
2023/03/26 03:39:45;;;;;;;0.50;0.50;;;;;;;12.49;97.87;98810.44;5126441;27;20232;-65
2023/03/26 03:42:12;;;;;;;0.50;0.50;;;;;;;12.42;97.92;98809.91;5130512;27;20194;-65
2023/03/26 03:44:38;;;;;;;0.40;0.40;;;;;;;12.40;98.03;98816.88;5127992;27;20202;-65
2023/03/26 03:47:05;;;;;;;0.40;0.40;;;;;;;12.36;97.93;98817.91;5115769;27;20206;-65
2023/03/26 03:49:32;;;;;;;0.40;0.40;;;;;;;12.31;98.15;98811.31;5127060;27;20194;-65
2023/03/26 03:52:01;;;;;;;0.60;0.60;;;;;;;12.34;98.06;98816.31;5120277;27;20199;-65
2023/03/26 03:54:28;;;;;;;0.40;0.40;;;;;;;12.36;98.08;98832.50;5124833;27;20274;-65
2023/03/26 03:56:55;;;;;;;0.50;0.50;;;;;;;12.31;97.55;98835.25;5129899;27;20198;-65
2023/03/26 03:59:22;;;;;;;0.50;0.50;;;;;;;12.29;96.99;98837.06;5122217;27;20210;-65
2023/03/26 04:01:49;;;;;;;0.50;0.50;;;;;;;12.17;97.32;98834.25;5124797;27;20194;-65
2023/03/26 04:04:16;;;;;;;0.50;0.50;;;;;;;12.20;96.83;98849.50;5129826;27;20202;-66
2023/03/26 04:06:44;;;;;;;0.50;0.50;;;;;;;12.12;96.18;98834.44;5120885;27;20202;-65
2023/03/26 04:09:12;;;;;;;0.50;0.50;;;;;;;12.14;96.29;98840.34;5122270;27;20304;-65
2023/03/26 04:11:38;;;;;;;0.50;0.50;;;;;;;12.08;96.38;98836.31;5125101;27;20198;-66
2023/03/26 04:14:05;;;;;;;0.40;0.40;;;;;;;11.95;96.82;98821.53;5128044;27;20194;-65
2023/03/26 04:16:32;;;;;;;0.60;0.60;;;;;;;11.97;97.08;98845.41;5121385;27;20194;-66
2023/03/26 04:19:01;;;;;;;0.50;0.50;;;;;;;11.85;97.39;98845.97;5125915;27;20209;-65
2023/03/26 04:21:29;;;;;;;0.60;0.60;;;;;;;11.69;97.90;98847.50;5127761;27;20194;-65
2023/03/26 04:23:56;;;;;;;0.53;0.53;;;;;;;11.67;97.73;98856.97;5123538;27;20210;-66
2023/03/26 04:26:24;;;;;;;0.53;0.53;;;;;;;11.71;97.30;98861.13;5126731;27;20218;-65
2023/03/26 04:28:54;;;;;;;0.50;0.50;;;;;;;11.69;97.50;98868.03;5123744;27;20197;-65
2023/03/26 04:31:27;;;;;;;0.47;0.47;;;;;;;11.69;97.40;98868.03;5126536;27;20539;-65
2023/03/26 04:34:00;;;;;;;0.60;0.60;;;;;;;11.60;97.48;98853.84;5119292;27;20290;-65
2023/03/26 04:36:28;;;;;;;0.40;0.40;;;;;;;11.73;96.83;98874.75;5128977;27;20204;-65
2023/03/26 04:39:01;;;;;;;0.60;0.60;;;;;;;11.78;96.54;98868.50;5122557;27;20189;-65
2023/03/26 04:41:31;;;;;;;0.50;0.50;;;;;;;11.81;96.38;98873.50;5123668;27;20285;-65
2023/03/26 04:44:00;;;;;;;0.50;0.50;;;;;;;11.86;96.50;98886.97;5125733;27;20744;-65
2023/03/26 04:46:32;;;;;;;0.40;0.40;;;;;;;11.79;96.88;98865.03;5125326;27;20197;-65
2023/03/26 04:49:00;;;;;;;0.50;0.50;;;;;;;11.97;96.24;98878.81;5129258;27;20198;-65
2023/03/26 04:51:33;;;;;;;0.40;0.40;;;;;;;12.04;95.82;98872.50;5126014;27;20266;-65
2023/03/26 04:54:01;;;;;;;0.40;0.40;;;;;;;12.16;95.45;98882.22;5122259;27;20208;-65
2023/03/26 04:56:39;;;;;;;0.80;0.80;;;;;;;12.33;94.86;98887.44;5125758;27;20262;-65
2023/03/26 04:59:06;;;;;;;0.60;0.60;;;;;;;12.45;94.26;98881.72;5125854;27;20290;-66
2023/03/26 05:01:36;;;;;;;0.43;0.43;;;;;;;12.60;92.99;98891.31;5123455;27;20748;-65
2023/03/26 05:04:03;;;;;;;0.50;0.50;;;;;;;12.74;92.59;98898.38;5126567;27;20198;-65
2023/03/26 05:06:33;;;;;;;0.40;0.40;;;;;;;12.86;91.53;98902.13;5118635;27;20198;-66
2023/03/26 05:09:00;;;;;;;0.60;0.60;;;;;;;12.98;91.32;98902.38;5126127;27;20574;-65
2023/03/26 05:11:27;;;;;;;0.50;0.50;;;;;;;13.10;91.26;98906.13;5126991;27;20190;-65
2023/03/26 05:13:56;;;;;;;0.60;0.60;;;;;;;13.22;90.75;98912.41;5124526;27;20572;-64
2023/03/26 05:16:23;;;;;;;0.50;0.50;;;;;;;13.26;90.59;98921.66;5121437;27;20205;-65
2023/03/26 05:18:51;;;;;;;0.60;0.60;;;;;;;13.32;90.87;98927.34;5127623;27;20198;-65
2023/03/26 05:21:18;;;;;;;0.53;0.53;;;;;;;13.36;90.13;98910.84;5125141;27;20275;-65
2023/03/26 05:23:45;;;;;;;0.60;0.60;;;;;;;13.57;89.43;98916.69;5124876;27;20662;-65
2023/03/26 05:26:12;;;;;;;0.53;0.53;;;;;;;13.76;88.89;98926.88;5119593;27;20222;-65
2023/03/26 05:28:38;;;;;;;0.50;0.50;;;;;;;13.82;88.02;98934.31;5128732;28;20198;-65
2023/03/26 05:31:08;;;;;;;0.50;0.50;;;;;;;13.94;87.95;98936.25;5131376;28;20242;-65
2023/03/26 05:33:35;;;;;;;0.50;0.50;;;;;;;14.07;86.81;98937.28;5126989;28;20194;-65
2023/03/26 05:36:05;;;;;;;0.60;0.60;;;;;;;14.18;86.74;98940.16;5122335;28;20247;-65
2023/03/26 05:38:32;;;;;;;0.40;0.40;;;;;;;14.34;86.40;98950.53;5116017;28;20195;-65
2023/03/26 05:41:00;;;;;;;0.60;0.60;;;;;;;14.43;85.99;98955.19;5125184;28;20213;-65
2023/03/26 05:43:27;;;;;;;0.40;0.40;;;;;;;14.57;85.59;98966.44;5119435;28;20204;-65
2023/03/26 05:45:54;;;;;;;0.60;0.60;;;;;;;14.71;84.04;98969.13;5121018;28;20200;-65
2023/03/26 05:48:23;;;;;;;0.47;0.47;;;;;;;14.85;84.08;98978.72;5120115;28;20736;-66
2023/03/26 05:50:50;;;;;;;0.40;0.40;;;;;;;14.98;83.32;98981.44;5118950;28;20691;-66
2023/03/26 05:53:18;;;;;;;0.50;0.50;;;;;;;15.00;83.05;98983.03;5123440;28;20204;-65
2023/03/26 05:55:45;;;;;;;0.40;0.40;;;;;;;15.12;82.16;98978.97;5118601;28;20312;-66
2023/03/26 05:58:13;;;;;;;0.47;0.47;;;;;;;15.16;83.12;98989.00;5127060;28;20194;-66
2023/03/26 06:00:40;;;;;;;0.43;0.43;;;;;;;15.23;81.83;98984.34;5122332;28;20224;-66
2023/03/26 06:03:11;;;;;;;0.60;0.60;;;;;;;15.37;82.31;98992.16;5121801;28;20673;-66
2023/03/26 06:05:41;;;;;;;0.47;0.47;;;;;;;15.44;82.55;98988.31;5124417;28;20686;-65
2023/03/26 06:08:09;;;;;;;0.60;0.60;;;;;;;15.54;82.31;98984.31;5123265;28;20228;-61
2023/03/26 06:10:37;;;;;;;0.57;0.57;;;;;;;15.60;81.09;98981.41;5129995;27;20196;-63
2023/03/26 06:13:04;;;;;;;0.53;0.53;;;;;;;15.69;80.32;98993.78;5122797;27;20205;-62
2023/03/26 06:15:31;;;;;;;0.40;0.40;;;;;;;15.69;81.44;98993.78;5131160;27;20566;-63
2023/03/26 06:17:58;;;;;;;0.50;0.50;;;;;;;15.67;80.87;99000.78;5126906;27;20197;-63
2023/03/26 06:20:25;;;;;;;0.50;0.50;;;;;;;15.71;79.60;98999.69;5126653;27;20225;-62
2023/03/26 06:22:53;;;;;;;0.40;0.40;;;;;;;15.77;80.07;98999.34;5121256;27;20644;-63
2023/03/26 06:25:20;;;;;;;0.50;0.50;;;;;;;15.85;79.33;99008.41;5131336;27;20562;-62
2023/03/26 06:27:46;;;;;;;0.60;0.60;;;;;;;15.97;78.93;99002.50;5124650;27;20198;-62
2023/03/26 06:30:14;;;;;;;0.50;0.50;;;;;;;16.06;77.63;99005.41;5130672;27;20246;-62
2023/03/26 06:32:40;;;;;;;0.50;0.50;;;;;;;16.31;77.65;99011.72;5120387;27;20206;-63
2023/03/26 06:35:08;;;;;;;0.60;0.60;;;;;;;16.55;74.22;99020.63;5127614;27;20205;-63
2023/03/26 06:37:35;;;;;;;0.50;0.50;;;;;;;16.57;74.87;99014.44;5126744;27;20200;-63
2023/03/26 06:40:03;;;;;;;0.40;0.40;;;;;;;16.70;70.07;99025.69;5125731;27;20573;-65
2023/03/26 06:42:30;;;;;;;0.40;0.40;;;;;;;16.80;69.97;99026.78;5125820;27;20210;-64
2023/03/26 06:44:57;;;;;;;0.53;0.53;;;;;;;17.00;69.96;99037.69;5123404;27;20198;-62
2023/03/26 06:47:24;;;;;;;0.50;0.50;;;;;;;17.07;68.37;99038.97;5133840;27;20198;-62
2023/03/26 06:49:50;;;;;;;0.60;0.60;;;;;;;17.16;70.87;99033.22;5124852;27;20235;-62
2023/03/26 06:52:17;;;;;;;0.50;0.50;;;;;;;17.30;72.48;99036.59;5130686;27;20194;-62
2023/03/26 06:54:44;;;;;;;0.90;0.90;;;;;;;17.51;69.55;99044.75;5123105;27;20236;-61
2023/03/26 06:57:12;;;;;;;0.40;0.40;;;;;;;17.52;69.62;99046.44;5124621;27;20224;-62
2023/03/26 06:59:39;;;;;;;0.50;0.50;;;;;;;17.42;70.03;99040.16;5127311;27;20194;-60
2023/03/26 07:02:06;;;;;;;0.40;0.40;;;;;;;17.54;70.37;99033.38;5125154;27;20567;-62
2023/03/26 07:04:32;;;;;;;0.50;0.50;;;;;;;17.77;68.92;99036.16;5124848;27;20207;-62
2023/03/26 07:06:59;;;;;;;0.50;0.50;;;;;;;17.84;66.27;99047.81;5124349;27;20280;-62
2023/03/26 07:09:29;;;;;;;0.40;0.40;;;;;;;17.99;64.56;99047.75;5124437;27;20198;-62
2023/03/26 07:11:56;;;;;;;0.50;0.50;;;;;;;17.99;64.57;99052.94;5122929;27;20198;-62
2023/03/26 07:14:26;;;;;;;0.50;0.50;;;;;;;18.17;63.60;99043.91;5133618;27;20247;-68
2023/03/26 07:16:53;;;;;;;0.57;0.57;;;;;;;18.21;61.29;99042.78;5127186;27;20228;-62
2023/03/26 07:19:20;;;;;;;0.50;0.50;;;;;;;18.22;59.61;99047.06;5130536;27;20626;-63
2023/03/26 07:21:47;;;;;;;0.47;0.47;;;;;;;18.34;60.26;99036.69;5128131;27;20221;-62
2023/03/26 07:24:15;;;;;;;0.50;0.50;;;;;;;18.48;59.96;99038.31;5127610;27;20259;-62
2023/03/26 07:26:54;;;;;;;0.40;0.40;;;;;;;18.65;60.42;99032.84;5127807;27;20198;-62
2023/03/26 07:29:32;;;;;;;0.30;0.30;;;;;;;18.78;60.86;99031.06;5125288;27;20205;-62
2023/03/26 07:32:08;;;;;;;0.30;0.30;;;;;;;18.92;58.82;99024.06;5119853;27;20201;-62
2023/03/26 07:34:46;;;;;;;0.40;0.40;;;;;;;18.84;57.59;99020.25;5115445;27;20582;-62
2023/03/26 07:37:24;;;;;;;0.40;0.40;;;;;;;18.63;56.09;98980.19;5129875;27;20517;-64
2023/03/26 07:39:56;;;;;;;0.40;0.40;;;;;;;19.03;54.72;99022.38;5113282;27;20198;-64
2023/03/26 07:42:37;;;;;;;0.50;0.50;;;;;;;19.06;53.53;99016.16;5129365;27;20646;-63
2023/03/26 07:45:19;;;;;;;0.40;0.40;;;;;;;19.09;51.54;99002.94;5130426;27;20197;-64
2023/03/26 07:47:48;;;;;;;0.40;0.40;;;;;;;19.19;52.26;99006.56;5132968;27;20201;-63
2023/03/26 07:50:16;;;;;;;0.50;0.50;;;;;;;19.43;53.37;99015.19;5132789;27;20200;-64
2023/03/26 07:52:44;;;;;;;0.50;0.50;;;;;;;19.42;53.11;99016.13;5116163;27;20199;-64
2023/03/26 07:55:13;;;;;;;0.50;0.50;;;;;;;19.38;52.93;99009.47;5113983;27;20304;-63
2023/03/26 07:57:49;;;;;;;0.50;0.50;;;;;;;19.38;53.36;99007.72;5114961;27;20192;-63
2023/03/26 08:00:23;;;;;;;0.40;0.40;;;;;;;19.16;53.30;99009.38;5124501;27;20198;-64
2023/03/26 08:03:17;;;;;;;0.37;0.37;;;;;;;19.07;53.02;99012.59;5125250;27;20202;-64
2023/03/26 08:05:51;;;;;;;0.63;0.63;;;;;;;19.09;54.42;99008.97;5102144;27;20726;-64
2023/03/26 08:08:22;;;;;;;0.43;0.43;;;;;;;19.19;54.31;98998.75;5119235;27;20198;-64
2023/03/26 08:11:03;;;;;;;0.40;0.40;;;;;;;19.30;54.09;99006.59;5112421;27;20198;-64
2023/03/26 08:13:39;;;;;;;0.40;0.40;;;;;;;19.42;54.30;98989.34;5112654;27;20204;-64
2023/03/26 08:16:12;;;;;;;0.43;0.43;;;;;;;19.49;54.13;98998.31;5132858;27;20201;-64
2023/03/26 08:18:49;;;;;;;0.40;0.40;;;;;;;19.29;54.27;99004.91;5119971;27;20191;-65
2023/03/26 08:21:20;;;;;;;0.40;0.40;;;;;;;19.20;55.88;99000.38;5121016;27;20209;-64
2023/03/26 08:24:00;;;;;;;0.50;0.50;;;;;;;19.13;56.25;98988.78;5126912;27;20195;-64
2023/03/26 08:26:35;;;;;;;0.50;0.50;;;;;;;19.35;55.49;98991.50;5123778;27;20245;-64
2023/03/26 08:29:16;;;;;;;0.40;0.40;;;;;;;19.53;54.92;98989.34;5119322;27;20737;-64
2023/03/26 08:31:47;;;;;;;0.40;0.40;;;;;;;19.41;53.17;98980.69;5132470;27;20199;-64
2023/03/26 08:34:14;;;;;;;0.43;0.43;;;;;;;19.33;55.00;98975.19;5120949;27;20268;-64
2023/03/26 08:36:41;;;;;;;0.43;0.43;;;;;;;19.44;55.46;98984.84;5133622;27;20287;-64
2023/03/26 08:39:08;;;;;;;0.40;0.40;;;;;;;19.47;53.84;98975.03;5125403;27;20555;-65
2023/03/26 08:42:13;;;;;;;0.50;0.50;;;;;;;19.64;54.44;98974.66;5119898;27;20288;-64
2023/03/26 08:45:28;;;;;;;0.50;0.50;;;;;;;19.88;53.31;98967.59;5111597;28;20204;-64
2023/03/26 08:48:33;;;;;;;0.50;0.50;;;;;;;19.74;51.32;98954.78;5048867;28;20200;-64
2023/03/26 08:51:37;;;;;;;0.40;0.40;;;;;;;19.67;51.91;98958.81;5114281;27;20194;-64
2023/03/26 08:54:56;;;;;;;0.27;0.27;;;;;;;19.82;50.90;98944.66;5120272;27;20267;-60
2023/03/26 08:57:56;;;;;;;0.50;0.50;;;;;;;19.89;49.39;98948.47;5119477;27;20249;-61
2023/03/26 09:00:59;;;;;;;0.47;0.47;;;;;;;19.79;48.78;98952.69;5117374;27;20203;-60
2023/03/26 09:03:51;;;;;;;0.30;0.30;;;;;;;20.09;48.46;98964.34;5114370;27;20559;-60
2023/03/26 09:07:00;;;;;;;0.50;0.50;;;;;;;19.95;45.68;98956.72;5119136;27;20266;-61
2023/03/26 09:09:50;;;;;;;0.40;0.40;;;;;;;20.21;47.76;98959.03;5048682;28;20198;-61
2023/03/26 09:12:44;;;;;;;0.30;0.30;;;;;;;20.22;44.93;98952.06;5113003;27;20189;-61
2023/03/26 09:15:47;;;;;;;0.40;0.40;;;;;;;20.36;46.58;98952.66;5123659;27;20198;-61
2023/03/26 09:18:32;;;;;;;0.50;0.50;;;;;;;20.45;45.72;98950.31;5125833;27;20193;-61
2023/03/26 09:21:38;;;;;;;0.47;0.47;;;;;;;20.57;45.97;98924.13;5114345;27;20218;-60
2023/03/26 09:24:47;;;;;;;0.53;0.53;;;;;;;20.70;43.66;98940.47;5111122;28;20688;-61
2023/03/26 09:27:35;;;;;;;0.47;0.47;;;;;;;20.77;42.46;98926.00;5114858;28;20213;-60
2023/03/26 09:30:39;;;;;;;0.80;0.80;;;;;;;20.77;43.24;98930.38;5118772;28;20200;-61
2023/03/26 09:33:48;;;;;;;0.40;0.40;;;;;;;20.82;44.31;98936.88;5110872;28;20194;-62
2023/03/26 09:36:33;;;;;;;0.40;0.40;;;;;;;20.78;42.11;98935.47;5110925;28;20205;-61
2023/03/26 09:39:09;;;;;;;0.40;0.40;;;;;;;20.98;42.53;98914.78;5127837;28;20201;-60
2023/03/26 09:41:42;;;;;;;0.40;0.40;;;;;;;20.92;41.22;98919.56;5121553;28;20234;-61
2023/03/26 09:44:49;;;;;;;0.40;0.40;;;;;;;20.91;40.47;98917.91;5121732;28;20285;-61
2023/03/26 09:47:43;;;;;;;0.33;0.33;;;;;;;21.09;41.53;98922.59;5135350;27;20206;-61
2023/03/26 09:50:29;;;;;;;0.37;0.37;;;;;;;21.29;42.20;98914.03;5117942;27;20197;-62
2023/03/26 09:53:15;;;;;;;0.30;0.30;;;;;;;21.27;40.25;98928.94;5121729;27;20276;-61
2023/03/26 09:55:56;;;;;;;0.30;0.30;;;;;;;21.36;40.73;98933.41;5130785;27;20229;-60
2023/03/26 09:58:48;;;;;;;0.50;0.50;;;;;;;21.31;40.41;98925.16;5123434;27;20266;-61
2023/03/26 10:01:20;;;;;;;0.40;0.40;;;;;;;21.39;40.29;98918.34;5114749;28;20209;-61
2023/03/26 10:04:00;;;;;;;0.30;0.30;;;;;;;21.58;39.49;98912.47;5115041;28;20577;-61
2023/03/26 10:06:41;;;;;;;0.33;0.33;;;;;;;21.41;38.63;98911.25;5114739;28;20208;-60
2023/03/26 10:09:29;;;;;;;0.47;0.47;;;;;;;21.42;38.18;98902.44;5123209;27;20198;-62
2023/03/26 10:12:15;;;;;;;0.40;0.40;;;;;;;21.43;39.36;98898.06;5128940;27;20193;-60
2023/03/26 10:14:48;;;;;;;0.30;0.30;;;;;;;21.51;37.97;98900.88;5119129;27;20201;-61
2023/03/26 10:17:33;;;;;;;0.37;0.37;;;;;;;21.70;39.48;98901.00;5134542;27;20205;-61
2023/03/26 10:20:27;;;;;;;0.40;0.40;;;;;;;21.92;37.61;98900.88;5126385;27;20423;-61
2023/03/26 10:23:05;;;;;;;0.20;0.20;;;;;;;21.86;38.26;98903.97;5123745;27;20229;-61
2023/03/26 10:25:49;;;;;;;0.20;0.20;;;;;;;21.77;37.24;98893.47;5119754;27;20500;-63
2023/03/26 10:28:33;;;;;;;0.40;0.40;;;;;;;21.90;38.31;98891.53;5122404;27;20211;-64
2023/03/26 10:31:18;;;;;;;0.30;0.30;;;;;;;21.98;37.73;98879.47;5123181;27;20198;-64
2023/03/26 10:33:54;;;;;;;0.30;0.30;;;;;;;21.92;36.73;98887.81;5118697;27;20203;-64
2023/03/26 10:36:34;;;;;;;0.20;0.20;;;;;;;21.69;35.99;98875.84;5117790;27;20220;-64
2023/03/26 10:39:22;;;;;;;0.43;0.43;;;;;;;21.92;35.73;98869.56;5130931;27;20207;-64
2023/03/26 10:42:00;;;;;;;0.40;0.40;;;;;;;21.96;35.20;98867.50;5120985;27;20212;-64
2023/03/26 10:44:54;;;;;;;0.40;0.40;;;;;;;22.11;36.10;98867.97;5118275;27;20604;-64
2023/03/26 10:47:51;;;;;;;0.40;0.40;;;;;;;22.26;35.98;98866.69;5122305;27;20781;-64
2023/03/26 10:50:52;;;;;;;0.30;0.30;;;;;;;22.17;34.03;98867.44;5120451;27;20608;-64
2023/03/26 10:53:28;;;;;;;0.20;0.20;;;;;;;22.18;36.10;98869.94;5096061;27;20585;-64
2023/03/26 10:56:09;;;;;;;0.30;0.30;;;;;;;22.30;34.96;98868.88;5118763;27;20225;-64
2023/03/26 10:58:39;;;;;;;0.30;0.30;;;;;;;22.35;35.88;98866.72;5118924;27;20202;-64
2023/03/26 11:01:15;;;;;;;0.30;0.30;;;;;;;22.37;36.10;98863.94;5120789;27;20266;-65
2023/03/26 11:03:51;;;;;;;0.20;0.20;;;;;;;22.39;34.56;98856.81;5129242;27;20751;-65
2023/03/26 11:06:32;;;;;;;0.37;0.37;;;;;;;22.31;35.39;98849.63;5123591;27;20360;-65
2023/03/26 11:09:11;;;;;;;0.30;0.30;;;;;;;22.30;34.04;98855.81;5123473;27;20198;-65
2023/03/26 11:11:44;;;;;;;0.30;0.30;;;;;;;22.07;35.71;98845.72;5125132;27;20201;-65
2023/03/26 11:14:20;;;;;;;0.30;0.30;;;;;;;22.22;35.14;98836.56;5124062;27;20661;-65
2023/03/26 11:16:58;;;;;;;0.30;0.30;;;;;;;22.39;34.45;98831.50;5119213;27;20612;-64
2023/03/26 11:19:31;;;;;;;0.30;0.30;;;;;;;22.26;32.54;98837.94;5124612;27;20373;-65
2023/03/26 11:22:07;;;;;;;0.30;0.30;;;;;;;22.31;33.96;98826.13;5125210;27;20277;-65
2023/03/26 11:24:52;;;;;;;0.30;0.30;;;;;;;22.25;33.09;98828.47;5124295;27;20550;-65
2023/03/26 11:27:30;;;;;;;0.40;0.40;;;;;;;22.14;33.83;98815.50;5125899;27;20204;-65
2023/03/26 11:30:09;;;;;;;0.30;0.30;;;;;;;22.25;33.80;98823.22;5122769;27;20198;-65
2023/03/26 11:32:41;;;;;;;0.30;0.30;;;;;;;22.34;33.83;98817.19;5116872;27;20205;-65
2023/03/26 11:35:15;;;;;;;0.40;0.40;;;;;;;22.44;33.52;98812.81;5125540;27;20198;-65
2023/03/26 11:37:46;;;;;;;0.50;0.50;;;;;;;22.48;33.50;98814.22;5120727;27;20628;-65
2023/03/26 11:40:19;;;;;;;0.37;0.37;;;;;;;22.44;31.41;98813.66;5120582;27;20699;-65
2023/03/26 11:42:47;;;;;;;0.30;0.30;;;;;;;22.56;34.22;98806.50;5114955;27;20685;-64
2023/03/26 11:45:19;;;;;;;0.30;0.30;;;;;;;22.63;32.57;98802.41;5126656;27;20214;-65
2023/03/26 11:47:50;;;;;;;0.30;0.30;;;;;;;22.58;31.91;98809.84;5118938;27;20194;-65
2023/03/26 11:50:22;;;;;;;0.40;0.40;;;;;;;22.52;31.52;98791.25;5119549;27;20656;-65
2023/03/26 11:52:49;;;;;;;0.30;0.30;;;;;;;22.63;32.29;98797.19;5119232;27;20566;-65
2023/03/26 11:55:16;;;;;;;0.30;0.30;;;;;;;22.71;33.83;98799.97;5119209;27;20317;-65
2023/03/26 11:57:48;;;;;;;0.30;0.30;;;;;;;22.69;32.59;98793.22;5127464;27;20631;-65
2023/03/26 12:00:20;;;;;;;0.40;0.40;;;;;;;22.78;33.35;98789.81;5129286;27;20202;-65